Time;durP1;ratioP1;P1;durP2;ratioP2;P2;SDS_P1;SDS_P2;PMS_P1;PMS_P2;Temp;Humidity;BMP_temperature;BMP_pressure;BME280_temperature;BME280_humidity;BME280_pressure;Samples;Min_cycle;Max_cycle;Signal;HPM_P1;HPM_P2
2023/05/03 00:02:16;;;;;;;3.93;2.30;;;;;;;;;;5067499;28;20213;-35
2023/05/03 00:04:45;;;;;;;2.47;2.27;;;;;;;;;;5069963;28;20236;-33
2023/05/03 00:07:12;;;;;;;2.83;2.63;;;;;;;;;;5070737;28;20257;-34
2023/05/03 00:09:39;;;;;;;3.03;2.07;;;;;;;;;;5070831;28;20203;-40
2023/05/03 00:12:08;;;;;;;3.53;2.60;;;;;;;;;;5063582;28;20205;-36
2023/05/03 00:14:35;;;;;;;3.00;2.70;;;;;;;;;;5069325;28;20215;-36
2023/05/03 00:17:02;;;;;;;3.20;2.67;;;;;;;;;;5068397;28;20221;-32
2023/05/03 00:19:32;;;;;;;2.73;2.40;;;;;;;;;;5066734;28;20276;-37
2023/05/03 00:21:59;;;;;;;3.43;2.57;;;;;;;;;;5069302;28;20210;-40
2023/05/03 00:24:26;;;;;;;5.33;2.30;;;;;;;;;;5069733;28;20473;-32
2023/05/03 00:26:54;;;;;;;3.33;2.20;;;;;;;;;;5066453;28;20210;-35
2023/05/03 00:29:22;;;;;;;3.23;2.53;;;;;;;;;;5072465;28;20198;-35
2023/05/03 00:31:49;;;;;;;2.87;2.50;;;;;;;;;;5071902;28;20213;-33
2023/05/03 00:34:17;;;;;;;3.00;2.47;;;;;;;;;;5068439;28;20309;-36
2023/05/03 00:36:44;;;;;;;2.10;1.90;;;;;;;;;;5073198;28;20219;-36
2023/05/03 00:39:12;;;;;;;3.23;2.57;;;;;;;;;;5073319;28;20198;-35
2023/05/03 00:41:40;;;;;;;3.20;2.20;;;;;;;;;;5067329;28;20209;-36
2023/05/03 00:44:07;;;;;;;2.97;2.37;;;;;;;;;;5171338;22;20238;-27
2023/05/03 00:46:36;;;;;;;4.50;3.30;;;;;;;;;;5096222;28;20204;-25
2023/05/03 00:49:03;;;;;;;2.70;2.50;;;;;;;;;;5088546;28;20280;-28
2023/05/03 00:51:30;;;;;;;4.20;2.77;;;;;;;;;;5093759;28;20213;-26
2023/05/03 00:53:58;;;;;;;2.87;2.40;;;;;;;;;;5096073;28;20229;-28
2023/05/03 00:56:26;;;;;;;2.70;2.50;;;;;;;;;;5089241;28;20233;-29
2023/05/03 00:58:54;;;;;;;3.13;2.57;;;;;;;;;;5095410;28;20216;-29
2023/05/03 01:01:21;;;;;;;3.03;2.67;;;;;;;;;;5088173;28;20224;-29
2023/05/03 01:03:49;;;;;;;2.93;2.40;;;;;;;;;;5078824;28;20856;-29
2023/05/03 01:06:20;;;;;;;4.33;2.57;;;;;;;;;;5091197;28;20211;-26
2023/05/03 01:08:51;;;;;;;4.47;2.67;;;;;;;;;;5081085;28;20293;-28
2023/05/03 01:11:21;;;;;;;3.33;2.40;;;;;;;;;;5075964;28;20198;-26
2023/05/03 01:13:53;;;;;;;2.60;2.40;;;;;;;;;;5091318;28;20222;-27
2023/05/03 01:16:25;;;;;;;2.83;2.40;;;;;;;;;;5093371;28;20217;-28
2023/05/03 01:18:56;;;;;;;3.97;2.90;;;;;;;;;;5082912;28;20209;-30
2023/05/03 01:21:24;;;;;;;2.77;2.47;;;;;;;;;;5092531;28;20211;-30
2023/05/03 01:23:55;;;;;;;3.97;2.57;;;;;;;;;;5083869;28;20229;-28
2023/05/03 01:26:25;;;;;;;3.77;2.67;;;;;;;;;;5076824;28;20207;-26
2023/05/03 01:28:52;;;;;;;4.70;2.73;;;;;;;;;;5081865;28;20307;-28
2023/05/03 01:31:23;;;;;;;3.20;2.27;;;;;;;;;;5088717;28;20205;-28
2023/05/03 01:33:56;;;;;;;2.37;2.20;;;;;;;;;;5083877;28;20221;-26
2023/05/03 01:36:27;;;;;;;2.80;2.50;;;;;;;;;;5092313;28;20216;-29
2023/05/03 01:38:55;;;;;;;4.03;2.70;;;;;;;;;;5091766;28;20237;-28
2023/05/03 01:41:23;;;;;;;2.40;2.20;;;;;;;;;;5087167;28;20192;-31
2023/05/03 01:43:52;;;;;;;2.73;2.40;;;;;;;;;;5092357;28;20240;-25
2023/05/03 01:46:19;;;;;;;2.87;2.33;;;;;;;;;;5093111;28;20510;-26
2023/05/03 01:48:47;;;;;;;2.63;2.17;;;;;;;;;;5083097;28;20239;-29
2023/05/03 01:51:15;;;;;;;4.70;2.60;;;;;;;;;;5092824;28;20218;-30
2023/05/03 01:53:42;;;;;;;2.63;2.43;;;;;;;;;;5092900;28;20213;-29
2023/05/03 01:56:09;;;;;;;2.77;2.57;;;;;;;;;;5093706;28;20205;-29
2023/05/03 01:58:36;;;;;;;2.70;2.07;;;;;;;;;;5084788;28;20208;-28
2023/05/03 02:01:06;;;;;;;2.23;2.03;;;;;;;;;;5093638;28;20200;-30
2023/05/03 02:03:34;;;;;;;3.43;2.50;;;;;;;;;;5081750;28;20293;-27
2023/05/03 02:06:01;;;;;;;3.40;2.10;;;;;;;;;;5092827;28;20213;-29
2023/05/03 02:08:28;;;;;;;2.43;2.13;;;;;;;;;;5093859;28;20197;-27
2023/05/03 02:10:55;;;;;;;3.97;2.30;;;;;;;;;;5091288;28;20216;-30
2023/05/03 02:13:22;;;;;;;4.20;2.10;;;;;;;;;;5080204;28;20225;-29
2023/05/03 02:15:49;;;;;;;2.50;2.30;;;;;;;;;;5090416;28;20217;-28
2023/05/03 02:18:19;;;;;;;2.43;2.23;;;;;;;;;;5081852;28;20225;-26
2023/05/03 02:20:46;;;;;;;2.23;2.00;;;;;;;;;;5088129;28;20216;-28
2023/05/03 02:23:13;;;;;;;3.20;2.50;;;;;;;;;;5090884;28;20222;-26
2023/05/03 02:25:41;;;;;;;2.27;2.07;;;;;;;;;;5091734;28;20209;-27
2023/05/03 02:28:08;;;;;;;3.00;2.57;;;;;;;;;;5082870;28;20289;-28
2023/05/03 02:30:35;;;;;;;3.73;2.53;;;;;;;;;;5082550;28;20203;-28
2023/05/03 02:33:02;;;;;;;2.80;2.37;;;;;;;;;;5081904;28;20277;-29
2023/05/03 02:35:31;;;;;;;3.70;2.40;;;;;;;;;;5088119;28;20209;-27
2023/05/03 02:37:58;;;;;;;4.70;2.67;;;;;;;;;;5090254;28;20232;-28
2023/05/03 02:40:25;;;;;;;2.53;2.33;;;;;;;;;;5073133;28;20201;-29
2023/05/03 02:42:53;;;;;;;4.17;2.50;;;;;;;;;;5081496;28;20204;-28
2023/05/03 02:45:20;;;;;;;2.50;2.30;;;;;;;;;;5094669;28;20197;-26
2023/05/03 02:47:47;;;;;;;2.60;2.40;;;;;;;;;;5091953;28;20201;-27
2023/05/03 02:50:14;;;;;;;4.07;2.50;;;;;;;;;;5088979;28;20201;-29
2023/05/03 02:52:43;;;;;;;2.50;2.30;;;;;;;;;;5089551;28;20211;-27
2023/05/03 02:55:10;;;;;;;2.60;2.03;;;;;;;;;;5079954;28;20227;-30
2023/05/03 02:57:38;;;;;;;2.83;2.27;;;;;;;;;;5085029;28;20226;-28
2023/05/03 03:00:06;;;;;;;2.50;2.00;;;;;;;;;;5089897;28;20224;-28
2023/05/03 03:02:34;;;;;;;2.20;2.00;;;;;;;;;;5087617;28;20299;-25
2023/05/03 03:05:01;;;;;;;2.47;2.27;;;;;;;;;;5082680;28;20233;-28
2023/05/03 03:07:28;;;;;;;2.73;2.27;;;;;;;;;;5090335;28;20201;-27
2023/05/03 03:09:56;;;;;;;4.57;2.57;;;;;;;;;;5085577;28;20250;-27
2023/05/03 03:12:24;;;;;;;2.77;1.90;;;;;;;;;;5076272;28;20212;-26
2023/05/03 03:14:51;;;;;;;2.93;2.30;;;;;;;;;;5080782;28;20224;-26
2023/05/03 03:17:18;;;;;;;2.63;2.43;;;;;;;;;;5084690;28;20231;-29
2023/05/03 03:19:45;;;;;;;2.60;2.40;;;;;;;;;;5081673;28;20624;-30
2023/05/03 03:22:12;;;;;;;3.47;2.10;;;;;;;;;;5089674;28;20193;-28
2023/05/03 03:24:39;;;;;;;2.97;2.43;;;;;;;;;;5090283;28;20224;-30
2023/05/03 03:27:08;;;;;;;3.10;2.17;;;;;;;;;;5078908;28;20204;-30
2023/05/03 03:29:35;;;;;;;2.60;2.40;;;;;;;;;;5086831;28;20211;-27
2023/05/03 03:32:02;;;;;;;3.20;2.37;;;;;;;;;;5090100;28;20236;-29
2023/05/03 03:34:30;;;;;;;2.40;2.20;;;;;;;;;;5075025;28;20223;-29
2023/05/03 03:36:57;;;;;;;2.70;2.50;;;;;;;;;;5089721;28;20204;-28
2023/05/03 03:39:24;;;;;;;2.20;2.00;;;;;;;;;;5089769;28;20209;-28
2023/05/03 03:41:52;;;;;;;5.30;2.70;;;;;;;;;;5084192;28;20212;-28
2023/05/03 03:44:20;;;;;;;2.67;2.40;;;;;;;;;;5082395;28;20243;-26
2023/05/03 03:46:47;;;;;;;2.80;2.27;;;;;;;;;;5089972;28;20197;-27
2023/05/03 03:49:14;;;;;;;2.67;2.43;;;;;;;;;;5075558;28;20212;-27
2023/05/03 03:51:42;;;;;;;3.03;2.30;;;;;;;;;;5087745;28;20402;-27
2023/05/03 03:54:09;;;;;;;3.57;2.30;;;;;;;;;;5089704;28;20222;-28
2023/05/03 03:56:36;;;;;;;5.77;2.33;;;;;;;;;;5080773;28;20216;-27
2023/05/03 03:59:03;;;;;;;2.70;2.50;;;;;;;;;;5083128;28;20320;-31
2023/05/03 04:01:34;;;;;;;3.93;2.70;;;;;;;;;;5088864;28;20205;-26
2023/05/03 04:04:01;;;;;;;2.03;1.93;;;;;;;;;;5077767;28;20238;-30
2023/05/03 04:06:28;;;;;;;4.00;2.50;;;;;;;;;;5088836;28;20295;-30
2023/05/03 04:08:56;;;;;;;2.57;2.37;;;;;;;;;;5089148;28;20299;-28
2023/05/03 04:11:23;;;;;;;2.30;2.10;;;;;;;;;;5086350;28;20216;-26
2023/05/03 04:13:56;;;;;;;2.60;2.33;;;;;;;;;;5082684;28;20224;-29
2023/05/03 04:16:23;;;;;;;2.70;2.23;;;;;;;;;;5091670;28;20208;-26
2023/05/03 04:18:52;;;;;;;2.57;2.37;;;;;;;;;;5079935;28;20232;-27
2023/05/03 04:21:19;;;;;;;3.63;2.27;;;;;;;;;;5087657;28;20215;-29
2023/05/03 04:23:46;;;;;;;3.03;2.47;;;;;;;;;;5087370;28;20677;-27
2023/05/03 04:26:13;;;;;;;2.77;2.50;;;;;;;;;;5088351;28;20212;-29
2023/05/03 04:28:41;;;;;;;2.57;2.37;;;;;;;;;;5081305;28;20194;-29
2023/05/03 04:31:08;;;;;;;3.27;2.30;;;;;;;;;;5090826;28;20209;-26
2023/05/03 04:33:49;;;;;;;3.20;2.40;;;;;;;;;;5087125;28;20220;-30
2023/05/03 04:36:17;;;;;;;2.53;2.33;;;;;;;;;;5092043;28;20204;-27
2023/05/03 04:38:45;;;;;;;3.30;2.23;;;;;;;;;;5073995;28;20225;-28
2023/05/03 04:41:12;;;;;;;2.00;1.80;;;;;;;;;;5082050;28;20227;-27
2023/05/03 04:43:39;;;;;;;2.50;2.30;;;;;;;;;;5092867;28;20235;-26
2023/05/03 04:46:07;;;;;;;3.13;2.27;;;;;;;;;;5093970;28;20239;-27
2023/05/03 04:48:35;;;;;;;2.87;2.60;;;;;;;;;;5078388;28;20205;-26
2023/05/03 04:51:02;;;;;;;4.80;2.47;;;;;;;;;;5090909;28;20211;-26
2023/05/03 04:53:30;;;;;;;2.40;2.20;;;;;;;;;;5087049;28;20235;-28
2023/05/03 04:56:00;;;;;;;3.63;2.83;;;;;;;;;;5092103;28;20201;-29
2023/05/03 04:58:27;;;;;;;2.50;2.30;;;;;;;;;;5091938;28;20217;-27
2023/05/03 05:00:54;;;;;;;3.17;2.50;;;;;;;;;;5084252;28;20215;-27
2023/05/03 05:03:22;;;;;;;4.80;3.17;;;;;;;;;;5083741;28;20225;-30
2023/05/03 05:05:50;;;;;;;3.60;2.93;;;;;;;;;;5091086;28;20215;-27
2023/05/03 05:08:17;;;;;;;2.50;2.30;;;;;;;;;;5091476;28;20310;-26
2023/05/03 05:10:45;;;;;;;3.63;2.83;;;;;;;;;;5084311;28;20801;-29
2023/05/03 05:13:13;;;;;;;2.97;2.43;;;;;;;;;;5087015;28;20224;-26
2023/05/03 05:15:40;;;;;;;2.50;2.30;;;;;;;;;;5094512;28;20204;-29
2023/05/03 05:18:08;;;;;;;2.63;2.33;;;;;;;;;;5087731;28;20240;-28
2023/05/03 05:20:35;;;;;;;5.30;2.37;;;;;;;;;;5089014;28;20200;-29
2023/05/03 05:23:02;;;;;;;2.60;2.00;;;;;;;;;;5086536;28;20208;-27
2023/05/03 05:25:29;;;;;;;4.23;2.47;;;;;;;;;;5093621;28;20200;-25
2023/05/03 05:27:57;;;;;;;3.20;2.90;;;;;;;;;;5096478;28;20200;-27
2023/05/03 05:30:25;;;;;;;3.57;2.50;;;;;;;;;;5088890;28;20205;-30
2023/05/03 05:32:52;;;;;;;2.90;2.70;;;;;;;;;;5087961;28;20265;-24
2023/05/03 05:35:19;;;;;;;3.70;2.57;;;;;;;;;;5085702;28;20200;-25
2023/05/03 05:37:46;;;;;;;3.47;3.17;;;;;;;;;;5085797;28;20242;-27
2023/05/03 05:40:14;;;;;;;3.13;2.37;;;;;;;;;;5083132;28;20206;-30
2023/05/03 05:42:41;;;;;;;5.33;3.07;;;;;;;;;;5081551;28;20201;-27
2023/05/03 05:45:10;;;;;;;4.57;2.73;;;;;;;;;;5081083;28;20282;-28
2023/05/03 05:47:37;;;;;;;2.73;2.33;;;;;;;;;;5082656;28;20301;-25
2023/05/03 05:50:05;;;;;;;3.70;2.77;;;;;;;;;;5090864;28;20218;-25
2023/05/03 05:52:32;;;;;;;3.00;2.50;;;;;;;;;;5084055;28;20209;-27
2023/05/03 05:55:00;;;;;;;3.73;2.63;;;;;;;;;;5082306;28;20220;-28
2023/05/03 05:57:27;;;;;;;4.43;2.90;;;;;;;;;;5086360;28;20215;-26
2023/05/03 05:59:54;;;;;;;3.60;3.03;;;;;;;;;;5087679;28;20258;-27
2023/05/03 06:02:23;;;;;;;3.70;2.97;;;;;;;;;;5090123;28;20201;-28
2023/05/03 06:04:50;;;;;;;3.13;2.83;;;;;;;;;;5081711;28;20226;-27
2023/05/03 06:07:18;;;;;;;3.47;3.17;;;;;;;;;;5084849;28;20294;-26
2023/05/03 06:09:45;;;;;;;3.57;3.20;;;;;;;;;;5081881;28;20209;-28
2023/05/03 06:12:18;;;;;;;5.63;3.83;;;;;;;;;;5076933;28;20206;-28
2023/05/03 06:14:45;;;;;;;6.83;4.00;;;;;;;;;;5082888;28;20231;-27
2023/05/03 06:17:12;;;;;;;5.73;4.27;;;;;;;;;;5085731;28;20209;-29
2023/05/03 06:19:40;;;;;;;4.37;3.87;;;;;;;;;;5084866;28;20225;-28
2023/05/03 06:22:08;;;;;;;6.00;4.33;;;;;;;;;;5079537;28;20200;-27
2023/05/03 06:24:35;;;;;;;5.40;4.70;;;;;;;;;;5079963;28;20217;-26
2023/05/03 06:27:02;;;;;;;8.07;4.80;;;;;;;;;;5083750;28;20302;-27
2023/05/03 06:29:29;;;;;;;6.13;4.50;;;;;;;;;;5079303;28;20202;-28
2023/05/03 06:31:56;;;;;;;7.33;4.80;;;;;;;;;;5077154;28;20201;-26
2023/05/03 06:34:23;;;;;;;9.17;5.23;;;;;;;;;;5073889;28;20225;-29
2023/05/03 06:36:52;;;;;;;7.73;5.33;;;;;;;;;;5078618;28;20209;-28
2023/05/03 06:39:19;;;;;;;10.20;5.93;;;;;;;;;;5089749;28;20218;-28
2023/05/03 06:41:46;;;;;;;7.83;5.40;;;;;;;;;;5074944;28;20198;-29
2023/05/03 06:44:13;;;;;;;9.50;5.73;;;;;;;;;;5039873;28;1071170;-27
2023/05/03 06:46:41;;;;;;;8.27;6.00;;;;;;;;;;5074919;28;20209;-31
2023/05/03 06:49:08;;;;;;;6.10;5.40;;;;;;;;;;5083814;28;20208;-29
2023/05/03 06:51:35;;;;;;;7.93;5.57;;;;;;;;;;5089950;28;20207;-28
2023/05/03 06:54:08;;;;;;;7.03;5.83;;;;;;;;;;5088529;28;20232;-26
2023/05/03 06:56:35;;;;;;;7.10;5.63;;;;;;;;;;5082925;28;20223;-28
2023/05/03 06:59:02;;;;;;;8.10;6.27;;;;;;;;;;5079557;28;20220;-29
2023/05/03 07:01:29;;;;;;;6.40;5.00;;;;;;;;;;5082067;28;20208;-29
2023/05/03 07:03:57;;;;;;;6.50;4.90;;;;;;;;;;5081831;28;20230;-29
2023/05/03 07:06:25;;;;;;;8.03;6.20;;;;;;;;;;5090548;28;20211;-26
2023/05/03 07:08:52;;;;;;;7.10;5.50;;;;;;;;;;5090065;28;20197;-26
2023/05/03 07:11:22;;;;;;;6.70;5.47;;;;;;;;;;5076497;28;20205;-28
2023/05/03 07:13:50;;;;;;;7.20;5.77;;;;;;;;;;5082229;28;20235;-28
2023/05/03 07:16:17;;;;;;;7.47;4.20;;;;;;;;;;5090441;28;20227;-29
2023/05/03 07:18:45;;;;;;;5.63;4.87;;;;;;;;;;5083549;28;20223;-29
2023/05/03 07:21:12;;;;;;;6.93;5.43;;;;;;;;;;5092086;28;20224;-28
2023/05/03 07:23:39;;;;;;;5.47;4.97;;;;;;;;;;5083071;28;20221;-31
2023/05/03 07:26:06;;;;;;;5.97;5.37;;;;;;;;;;5081434;28;20219;-31
2023/05/03 07:28:34;;;;;;;5.97;5.37;;;;;;;;;;5087090;28;20196;-27
2023/05/03 07:31:03;;;;;;;6.23;5.43;;;;;;;;;;5085032;28;20203;-26
2023/05/03 07:33:30;;;;;;;8.33;5.60;;;;;;;;;;5078540;28;20230;-27
2023/05/03 07:35:57;;;;;;;7.20;4.80;;;;;;;;;;5086753;28;20296;-29
2023/05/03 07:38:24;;;;;;;7.03;5.50;;;;;;;;;;5083358;28;20229;-29
2023/05/03 07:40:52;;;;;;;5.60;5.00;;;;;;;;;;5085492;28;20202;-27
2023/05/03 07:43:22;;;;;;;5.47;5.00;;;;;;;;;;5083774;28;20232;-30
2023/05/03 07:45:51;;;;;;;6.83;5.60;;;;;;;;;;5080552;28;20276;-27
2023/05/03 07:48:18;;;;;;;5.80;5.20;;;;;;;;;;5077549;28;20263;-29
2023/05/03 07:50:45;;;;;;;6.80;5.00;;;;;;;;;;5080181;28;20216;-30
2023/05/03 07:53:12;;;;;;;5.13;4.63;;;;;;;;;;5091560;28;20237;-29
2023/05/03 07:55:40;;;;;;;5.63;5.03;;;;;;;;;;5077001;28;20209;-30
2023/05/03 07:58:07;;;;;;;6.13;5.53;;;;;;;;;;5080656;28;20260;-30
2023/05/03 08:00:35;;;;;;;7.87;5.57;;;;;;;;;;5092961;28;20258;-29
2023/05/03 08:03:05;;;;;;;6.47;5.13;;;;;;;;;;5090344;28;20201;-26
2023/05/03 08:05:34;;;;;;;10.50;6.03;;;;;;;;;;5090193;28;20205;-29
2023/05/03 08:08:02;;;;;;;8.43;6.07;;;;;;;;;;5083794;28;20212;-31
2023/05/03 08:10:30;;;;;;;5.93;5.37;;;;;;;;;;5086493;28;20197;-31
2023/05/03 08:12:57;;;;;;;5.30;4.80;;;;;;;;;;5079682;28;20258;-27
2023/05/03 08:15:25;;;;;;;7.53;5.33;;;;;;;;;;5089744;28;20212;-30
2023/05/03 08:17:52;;;;;;;8.20;6.03;;;;;;;;;;5085222;28;20200;-29
2023/05/03 08:20:20;;;;;;;7.03;6.23;;;;;;;;;;5078017;28;20230;-31
2023/05/03 08:22:47;;;;;;;6.50;5.80;;;;;;;;;;5091740;28;20201;-31
2023/05/03 08:25:16;;;;;;;8.03;6.30;;;;;;;;;;5093117;28;20229;-30
2023/05/03 08:27:43;;;;;;;7.20;4.97;;;;;;;;;;5086994;28;20233;-31
2023/05/03 08:30:11;;;;;;;6.83;5.57;;;;;;;;;;5093998;28;20204;-28
2023/05/03 08:32:41;;;;;;;6.83;5.47;;;;;;;;;;5089932;28;20206;-26
2023/05/03 08:35:09;;;;;;;7.73;5.20;;;;;;;;;;5080505;28;20242;-30
2023/05/03 08:37:41;;;;;;;6.53;5.83;;;;;;;;;;5089412;28;20292;-29
2023/05/03 08:40:10;;;;;;;6.57;5.93;;;;;;;;;;5076988;28;20222;-28
2023/05/03 08:42:41;;;;;;;8.07;5.77;;;;;;;;;;5085081;28;20205;-30
2023/05/03 08:45:11;;;;;;;7.90;5.87;;;;;;;;;;5085721;28;20242;-29
2023/05/03 08:47:39;;;;;;;6.60;5.77;;;;;;;;;;5076209;28;20265;-30
2023/05/03 08:50:07;;;;;;;10.50;6.23;;;;;;;;;;5086227;28;20568;-31
2023/05/03 08:52:35;;;;;;;7.40;5.57;;;;;;;;;;5095145;28;20204;-30
2023/05/03 08:55:03;;;;;;;6.37;5.33;;;;;;;;;;5089945;28;20223;-29
2023/05/03 08:57:31;;;;;;;7.40;6.00;;;;;;;;;;5078764;28;20232;-29
2023/05/03 09:00:00;;;;;;;8.63;6.73;;;;;;;;;;5090348;28;20243;-29
2023/05/03 09:02:27;;;;;;;6.47;5.77;;;;;;;;;;5082990;28;20293;-29
2023/05/03 09:04:56;;;;;;;8.47;6.40;;;;;;;;;;5085692;28;20266;-32
2023/05/03 09:07:23;;;;;;;8.47;6.53;;;;;;;;;;5086060;28;20682;-28
2023/05/03 09:09:50;;;;;;;8.20;6.80;;;;;;;;;;5084359;28;20200;-29
2023/05/03 09:12:35;;;;;;;10.93;6.73;;;;;;;;;;5093735;28;20272;-27
2023/05/03 09:15:03;;;;;;;7.23;6.17;;;;;;;;;;5085370;28;20228;-29
2023/05/03 09:17:30;;;;;;;7.47;6.50;;;;;;;;;;5082563;28;20217;-28
2023/05/03 09:19:58;;;;;;;7.00;5.90;;;;;;;;;;5084533;28;20233;-26
2023/05/03 09:22:27;;;;;;;9.10;7.23;;;;;;;;;;5092296;28;20202;-29
2023/05/03 09:24:55;;;;;;;11.00;7.40;;;;;;;;;;5086538;28;20228;-29
2023/05/03 09:27:22;;;;;;;8.70;6.33;;;;;;;;;;5079454;28;20224;-30
2023/05/03 09:29:51;;;;;;;8.40;6.33;;;;;;;;;;5092119;28;20254;-29
2023/05/03 09:32:18;;;;;;;8.53;6.73;;;;;;;;;;5089538;28;20200;-28
2023/05/03 09:34:46;;;;;;;9.13;6.90;;;;;;;;;;5088793;28;20320;-27
2023/05/03 09:37:14;;;;;;;8.07;6.57;;;;;;;;;;5086969;28;20203;-28
2023/05/03 09:39:41;;;;;;;7.27;6.10;;;;;;;;;;5092798;28;20247;-28
2023/05/03 09:42:12;;;;;;;9.43;6.73;;;;;;;;;;5089326;28;20562;-28
2023/05/03 09:44:43;;;;;;;12.93;7.30;;;;;;;;;;5090474;28;20232;-29
2023/05/03 09:47:12;;;;;;;6.47;5.27;;;;;;;;;;5082524;28;20205;-30
2023/05/03 09:49:39;;;;;;;8.73;6.00;;;;;;;;;;5081987;28;20205;-25
2023/05/03 09:52:07;;;;;;;9.47;6.73;;;;;;;;;;5094012;28;20261;-28
2023/05/03 09:54:35;;;;;;;7.00;6.30;;;;;;;;;;5076816;28;20290;-30
2023/05/03 09:57:03;;;;;;;9.03;6.63;;;;;;;;;;5086911;28;20216;-28
2023/05/03 09:59:31;;;;;;;5.07;4.60;;;;;;;;;;5089990;28;20254;-31
2023/05/03 10:02:00;;;;;;;7.80;5.50;;;;;;;;;;5088582;28;20207;-31
2023/05/03 10:04:29;;;;;;;7.07;6.37;;;;;;;;;;5086793;28;20289;-30
2023/05/03 10:07:00;;;;;;;7.30;5.67;;;;;;;;;;5080115;28;20205;-28
2023/05/03 10:09:30;;;;;;;6.27;5.50;;;;;;;;;;5080646;28;20204;-29
2023/05/03 10:11:59;;;;;;;9.47;5.97;;;;;;;;;;5079956;28;20219;-32
2023/05/03 10:14:26;;;;;;;7.03;5.80;;;;;;;;;;5084705;28;20248;-31
2023/05/03 10:16:56;;;;;;;8.50;6.20;;;;;;;;;;5081336;28;20236;-30
2023/05/03 10:19:25;;;;;;;9.30;6.27;;;;;;;;;;5082183;28;20225;-28
2023/05/03 10:21:59;;;;;;;7.47;5.87;;;;;;;;;;5092587;28;20207;-27
2023/05/03 10:24:26;;;;;;;6.90;5.80;;;;;;;;;;5093557;28;20259;-29
2023/05/03 10:26:56;;;;;;;7.00;5.80;;;;;;;;;;5088850;28;20204;-29
2023/05/03 10:29:47;;;;;;;6.17;5.57;;;;;;;;;;5088679;28;20212;-28
2023/05/03 10:32:28;;;;;;;6.90;5.77;;;;;;;;;;5090299;28;20200;-28
2023/05/03 10:34:58;;;;;;;6.93;5.33;;;;;;;;;;5085948;28;20220;-27
2023/05/03 10:37:44;;;;;;;5.80;5.00;;;;;;;;;;5093761;28;20204;-31
2023/05/03 10:40:14;;;;;;;6.07;5.10;;;;;;;;;;5095027;28;20223;-27
2023/05/03 10:42:44;;;;;;;5.20;4.30;;;;;;;;;;5092316;28;20201;-30
2023/05/03 10:45:20;;;;;;;6.77;6.10;;;;;;;;;;5093380;28;20221;-26
2023/05/03 10:48:02;;;;;;;6.30;5.27;;;;;;;;;;5088252;28;20201;-30
2023/05/03 10:50:30;;;;;;;7.40;5.43;;;;;;;;;;5088653;28;20333;-26
2023/05/03 10:52:57;;;;;;;8.77;5.47;;;;;;;;;;5092115;28;20219;-26
2023/05/03 10:55:25;;;;;;;6.00;5.37;;;;;;;;;;5086177;28;20276;-29
2023/05/03 10:57:57;;;;;;;4.70;4.10;;;;;;;;;;5074387;28;20208;-30
2023/05/03 11:00:28;;;;;;;6.27;5.27;;;;;;;;;;5088716;28;20307;-28
2023/05/03 11:03:08;;;;;;;6.63;5.40;;;;;;;;;;5078121;28;20200;-26
2023/05/03 11:05:36;;;;;;;6.57;5.37;;;;;;;;;;5087586;28;20200;-27
2023/05/03 11:08:13;;;;;;;5.97;5.33;;;;;;;;;;5092755;28;20207;-29
2023/05/03 11:10:42;;;;;;;7.33;5.00;;;;;;;;;;5083715;28;20198;-29
2023/05/03 11:13:09;;;;;;;5.37;4.70;;;;;;;;;;5081555;28;20204;-28
2023/05/03 11:15:37;;;;;;;6.40;4.47;;;;;;;;;;5093019;28;20203;-31
2023/05/03 11:18:05;;;;;;;4.23;3.87;;;;;;;;;;5331588;22;20237;-31
2023/05/03 11:20:32;;;;;;;4.70;4.00;;;;;;;;;;5057074;28;20305;-27
2023/05/03 11:23:00;;;;;;;5.13;4.63;;;;;;;;;;5059808;28;20208;-36
2023/05/03 11:25:27;;;;;;;7.67;4.50;;;;;;;;;;5033082;28;20301;-33
2023/05/03 11:27:55;;;;;;;5.13;4.63;;;;;;;;;;5044994;28;20206;-33
2023/05/03 11:30:22;;;;;;;4.53;4.13;;;;;;;;;;5044059;28;20212;-34
2023/05/03 11:32:50;;;;;;;4.20;3.80;;;;;;;;;;5031676;28;20293;-33
2023/05/03 11:35:18;;;;;;;4.93;4.43;;;;;;;;;;5040944;28;20214;-33
2023/05/03 11:37:45;;;;;;;4.10;3.60;;;;;;;;;;5049991;28;20202;-32
2023/05/03 11:40:17;;;;;;;3.93;3.47;;;;;;;;;;5032999;28;20230;-33
2023/05/03 11:42:53;;;;;;;4.00;3.60;;;;;;;;;;5036450;28;20239;-32
2023/05/03 11:45:22;;;;;;;4.10;3.30;;;;;;;;;;5051837;28;20206;-31
2023/05/03 11:47:49;;;;;;;4.03;3.60;;;;;;;;;;5045759;28;20234;-32
2023/05/03 11:50:17;;;;;;;5.30;3.77;;;;;;;;;;5048879;28;20726;-30
2023/05/03 11:52:45;;;;;;;3.67;3.17;;;;;;;;;;5034141;28;20202;-37
2023/05/03 11:55:12;;;;;;;4.20;3.80;;;;;;;;;;5035905;28;20227;-34
2023/05/03 11:57:41;;;;;;;5.53;3.43;;;;;;;;;;5038325;28;20206;-34
2023/05/03 12:00:13;;;;;;;4.20;3.77;;;;;;;;;;5046350;28;20676;-31
2023/05/03 12:02:41;;;;;;;3.43;3.13;;;;;;;;;;5031996;28;20209;-32
2023/05/03 12:05:09;;;;;;;3.90;3.27;;;;;;;;;;5044195;28;20636;-35
2023/05/03 12:07:37;;;;;;;3.83;3.30;;;;;;;;;;5042711;28;20202;-33
2023/05/03 12:10:16;;;;;;;3.70;2.90;;;;;;;;;;5053530;28;20208;-32
2023/05/03 12:12:52;;;;;;;3.77;3.37;;;;;;;;;;5048317;28;20300;-32
2023/05/03 12:15:27;;;;;;;3.63;3.30;;;;;;;;;;5038156;28;20347;-36
2023/05/03 12:17:57;;;;;;;3.20;2.90;;;;;;;;;;5039077;28;20653;-32
2023/05/03 12:20:25;;;;;;;4.37;3.30;;;;;;;;;;5042652;28;20265;-33
2023/05/03 12:22:52;;;;;;;3.43;3.13;;;;;;;;;;5032776;28;20290;-34
2023/05/03 12:25:20;;;;;;;5.33;3.07;;;;;;;;;;5036864;28;20215;-34
2023/05/03 12:27:47;;;;;;;3.60;3.30;;;;;;;;;;5042465;28;20262;-33
2023/05/03 12:30:14;;;;;;;4.60;3.30;;;;;;;;;;5040213;28;20206;-34
2023/05/03 12:32:42;;;;;;;4.73;3.67;;;;;;;;;;5058039;28;20226;-32
2023/05/03 12:35:10;;;;;;;4.10;3.30;;;;;;;;;;5041860;28;20239;-33
2023/05/03 12:37:38;;;;;;;3.57;3.00;;;;;;;;;;5045301;28;20210;-32
2023/05/03 12:40:13;;;;;;;6.50;3.23;;;;;;;;;;5045956;28;20300;-32
2023/05/03 12:42:40;;;;;;;2.97;2.77;;;;;;;;;;5039197;28;20273;-32
2023/05/03 12:45:08;;;;;;;3.93;3.00;;;;;;;;;;5048922;28;20226;-35
2023/05/03 12:47:36;;;;;;;3.27;3.00;;;;;;;;;;5048978;28;20985;-34
2023/05/03 12:50:03;;;;;;;2.80;2.60;;;;;;;;;;5049658;28;20203;-32
2023/05/03 12:52:32;;;;;;;3.10;2.80;;;;;;;;;;5035320;28;20226;-33
2023/05/03 12:54:59;;;;;;;3.17;2.87;;;;;;;;;;5034236;28;20287;-36
2023/05/03 12:57:26;;;;;;;2.67;2.40;;;;;;;;;;5049731;28;20215;-32
2023/05/03 12:59:53;;;;;;;3.90;3.17;;;;;;;;;;5042430;28;20207;-31
2023/05/03 13:02:21;;;;;;;3.93;3.20;;;;;;;;;;5034957;28;20295;-33
2023/05/03 13:04:54;;;;;;;2.87;2.67;;;;;;;;;;5043383;28;20237;-34
2023/05/03 13:07:23;;;;;;;2.83;2.60;;;;;;;;;;5043661;28;20204;-32
2023/05/03 13:09:52;;;;;;;2.73;2.40;;;;;;;;;;5035677;28;20211;-33
2023/05/03 13:12:21;;;;;;;3.37;2.70;;;;;;;;;;5037970;28;20198;-33
2023/05/03 13:14:48;;;;;;;4.70;2.87;;;;;;;;;;5045757;28;20668;-30
2023/05/03 13:17:15;;;;;;;3.57;3.00;;;;;;;;;;5030422;28;20225;-31
2023/05/03 13:19:43;;;;;;;4.27;3.00;;;;;;;;;;5045800;28;20234;-35
2023/05/03 13:22:11;;;;;;;3.27;2.93;;;;;;;;;;5038524;28;20204;-34
2023/05/03 13:24:38;;;;;;;2.50;2.40;;;;;;;;;;5053352;28;20237;-35
2023/05/03 13:27:06;;;;;;;3.00;2.70;;;;;;;;;;5047456;28;20207;-32
2023/05/03 13:29:33;;;;;;;3.20;2.90;;;;;;;;;;5044825;28;20208;-32
2023/05/03 13:32:01;;;;;;;2.90;2.70;;;;;;;;;;5054654;28;20541;-33
2023/05/03 13:34:28;;;;;;;3.37;2.73;;;;;;;;;;5042083;28;20242;-34
2023/05/03 13:36:55;;;;;;;3.27;2.97;;;;;;;;;;5035239;28;20212;-31
2023/05/03 13:39:22;;;;;;;3.27;2.90;;;;;;;;;;5066098;28;20202;-35
2023/05/03 13:41:50;;;;;;;3.43;2.90;;;;;;;;;;5067600;28;20286;-33
2023/05/03 13:44:19;;;;;;;3.43;3.13;;;;;;;;;;5049240;28;20715;-33
2023/05/03 13:46:46;;;;;;;2.93;2.60;;;;;;;;;;5054652;28;20215;-32
2023/05/03 13:49:14;;;;;;;2.80;2.60;;;;;;;;;;5038323;28;20209;-32
2023/05/03 13:51:41;;;;;;;2.83;2.43;;;;;;;;;;5043282;28;20210;-31
2023/05/03 13:54:08;;;;;;;3.87;2.70;;;;;;;;;;5035815;28;20235;-34
2023/05/03 13:56:36;;;;;;;3.50;2.27;;;;;;;;;;5032627;28;20299;-34
2023/05/03 13:59:04;;;;;;;2.77;2.27;;;;;;;;;;5033258;28;20658;-36
2023/05/03 14:01:32;;;;;;;2.50;2.30;;;;;;;;;;5031606;28;20240;-31
2023/05/03 14:03:59;;;;;;;2.80;2.30;;;;;;;;;;5039640;28;20305;-34
2023/05/03 14:06:27;;;;;;;4.33;2.77;;;;;;;;;;5042933;28;20215;-34
2023/05/03 14:08:55;;;;;;;2.90;2.70;;;;;;;;;;5054053;28;20209;-33
2023/05/03 14:11:23;;;;;;;2.50;2.30;;;;;;;;;;5069793;28;20200;-32
2023/05/03 14:13:51;;;;;;;2.33;2.07;;;;;;;;;;5046317;28;20226;-31
2023/05/03 14:16:19;;;;;;;3.73;2.57;;;;;;;;;;5030270;28;20221;-33
2023/05/03 14:18:47;;;;;;;3.27;2.80;;;;;;;;;;5044594;28;20219;-35
2023/05/03 14:21:15;;;;;;;2.40;2.20;;;;;;;;;;5037468;28;20239;-33
2023/05/03 14:23:49;;;;;;;2.10;2.00;;;;;;;;;;5051926;28;20224;-32
2023/05/03 14:26:17;;;;;;;2.50;2.40;;;;;;;;;;5048417;28;20230;-33
2023/05/03 14:28:45;;;;;;;4.50;3.27;;;;;;;;;;5036518;28;20212;-33
2023/05/03 14:31:12;;;;;;;4.97;2.30;;;;;;;;;;5036346;28;20210;-32
2023/05/03 14:33:39;;;;;;;2.70;2.43;;;;;;;;;;5042797;28;20231;-33
2023/05/03 14:36:08;;;;;;;2.60;2.40;;;;;;;;;;5043199;28;20212;-32
2023/05/03 14:38:36;;;;;;;2.63;2.17;;;;;;;;;;5051704;28;20203;-30
2023/05/03 14:41:03;;;;;;;7.63;3.17;;;;;;;;;;5073121;28;20230;-34
2023/05/03 14:43:30;;;;;;;3.10;2.10;;;;;;;;;;5052105;28;20235;-33
2023/05/03 14:45:57;;;;;;;2.47;2.27;;;;;;;;;;5032879;28;20215;-35
2023/05/03 14:48:25;;;;;;;3.03;1.90;;;;;;;;;;5038782;28;20212;-31
2023/05/03 14:50:52;;;;;;;3.03;2.23;;;;;;;;;;5040659;28;20197;-34